KABI/ABI METAR and TAF weather

Enter ICAO airport designator
Station Type Date Time Source
KABI METAR 2021/07/28 19:52 UTC NOAA

KABI 281952Z 10SM CLR 35/18 A3007 RMK AO2 LTG DSNT N SLP150 T03500178


Station Type Date Time Source
KABI Decoded METAR 2021/07/28 19:52 UTC NOAA

ABILENE REGIONAL AIRPORT, TX, United States (KABI) 32-25N 099-41W 548M
Jul 28, 2021 - 03:52 PM EDT / 2021.07.28 1952 UTC
Visibility: 10 mile(s):0
Sky conditions: clear
Weather: Lightning observed
Temperature: 95.0 F (35.0 C)
Heat index: 97.0 F (36.1 C):1
Dew Point: 64.0 F (17.8 C)
Relative Humidity: 36%
Pressure (altimeter): 30.07 in. Hg (1018 hPa)
ob: KABI 281952Z 10SM CLR 35/18 A3007 RMK AO2 LTG DSNT N SLP150 T03500178
cycle: 20

Station Type Date Time Source
KABI TAF 2021/07/28 18:30 UTC NOAA

TAF KABI 281727Z 2818/2918 11006KT P6SM SCT070 BKN150
FM290100 14010KT P6SM SCT250
FM290900 18006KT P6SM SCT250

Example: see airport list